Time;durP1;ratioP1;P1;durP2;ratioP2;P2;SDS_P1;SDS_P2;PMS_P1;PMS_P2;Temp;Humidity;BMP_temperature;BMP_pressure;BME280_temperature;BME280_humidity;BME280_pressure;Samples;Min_cycle;Max_cycle;Signal;HPM_P1;HPM_P2
2022/03/16 00:00:19;;;;;;;60.17;32.95;;;;;;;8.49;80.08;102074.03;5090576;28;20044;-71
2022/03/16 00:02:48;;;;;;;58.72;35.17;;;;;;;8.47;79.59;102076.97;5068902;28;20056;-70
2022/03/16 00:05:17;;;;;;;54.78;32.40;;;;;;;8.53;79.92;102076.09;5051226;28;20499;-71
2022/03/16 00:07:45;;;;;;;61.08;34.03;;;;;;;8.53;79.10;102072.50;5065836;28;20123;-71
2022/03/16 00:10:14;;;;;;;60.53;33.85;;;;;;;8.48;79.58;102062.25;5054936;28;20060;-71
2022/03/16 00:12:42;;;;;;;62.70;34.97;;;;;;;8.45;79.82;102062.72;5070797;28;20060;-71
2022/03/16 00:15:13;;;;;;;58.33;34.50;;;;;;;8.44;80.87;102061.06;5074911;28;20059;-71
2022/03/16 00:17:41;;;;;;;58.42;33.20;;;;;;;8.42;80.43;102052.28;5075155;28;20049;-71
2022/03/16 00:20:10;;;;;;;60.60;35.42;;;;;;;8.33;80.87;102051.75;5070508;28;20048;-70
2022/03/16 00:22:38;;;;;;;58.42;34.83;;;;;;;8.36;80.92;102050.47;5059331;28;20045;-71
2022/03/16 00:25:07;;;;;;;60.30;33.75;;;;;;;8.38;80.89;102054.63;5053756;28;20045;-71
2022/03/16 00:27:35;;;;;;;56.95;33.42;;;;;;;8.36;81.42;102047.72;5072028;28;20502;-71
2022/03/16 00:30:04;;;;;;;58.85;34.63;;;;;;;8.34;81.32;102051.53;5070513;28;20044;-71
2022/03/16 00:32:32;;;;;;;61.13;34.95;;;;;;;8.26;81.83;102042.81;5050793;28;20056;-71
2022/03/16 00:35:03;;;;;;;58.90;35.72;;;;;;;8.30;81.40;102039.41;5056594;28;20071;-70
2022/03/16 00:37:32;;;;;;;58.60;35.33;;;;;;;8.27;81.38;102039.84;5074601;28;20064;-71
2022/03/16 00:40:01;;;;;;;58.92;35.55;;;;;;;8.32;82.02;102042.72;5056611;28;20433;-71
2022/03/16 00:42:29;;;;;;;62.30;36.05;;;;;;;8.27;81.49;102039.03;5056572;28;20052;-71
2022/03/16 00:44:57;;;;;;;62.38;35.50;;;;;;;8.27;81.90;102044.47;5056591;28;20041;-71
2022/03/16 00:47:27;;;;;;;61.75;35.65;;;;;;;8.25;82.42;102031.06;5074213;28;20056;-71
2022/03/16 00:49:55;;;;;;;61.90;37.20;;;;;;;8.16;82.17;102029.72;5089177;28;20055;-71
2022/03/16 00:52:23;;;;;;;63.72;36.35;;;;;;;8.21;82.41;102021.66;5088771;28;20055;-70
2022/03/16 00:54:51;;;;;;;64.47;36.38;;;;;;;8.14;82.58;102020.91;5073158;28;20044;-70
2022/03/16 00:57:19;;;;;;;60.53;35.22;;;;;;;8.05;83.11;102025.84;5072376;28;20372;-70
2022/03/16 00:59:47;;;;;;;63.55;35.25;;;;;;;7.98;82.62;102020.47;5049674;28;20367;-70
2022/03/16 01:02:15;;;;;;;59.95;35.50;;;;;;;7.97;83.02;102016.06;5054529;28;20052;-71
2022/03/16 01:04:43;;;;;;;64.45;38.10;;;;;;;8.00;83.04;102010.16;5066778;28;20044;-71
2022/03/16 01:07:11;;;;;;;61.28;34.65;;;;;;;7.98;82.94;101998.66;5073791;28;20577;-71
2022/03/16 01:09:39;;;;;;;60.15;37.00;;;;;;;8.01;83.42;102000.94;5055598;28;20056;-71
2022/03/16 01:12:08;;;;;;;63.85;35.53;;;;;;;8.04;83.20;101997.75;5074010;28;20048;-71
2022/03/16 01:14:36;;;;;;;63.65;36.75;;;;;;;8.01;83.06;101998.19;5074058;28;20045;-71
2022/03/16 01:17:04;;;;;;;65.50;37.92;;;;;;;8.04;83.31;101984.13;5073819;28;20036;-71
2022/03/16 01:19:34;;;;;;;64.60;38.50;;;;;;;8.09;83.29;101990.78;5056694;28;20044;-71
2022/03/16 01:22:04;;;;;;;62.05;36.67;;;;;;;8.02;82.87;101993.59;5055407;28;20055;-70
2022/03/16 01:24:33;;;;;;;65.15;36.70;;;;;;;8.08;83.26;101981.78;5073632;28;20056;-71
2022/03/16 01:27:01;;;;;;;69.43;38.13;;;;;;;8.06;82.93;101979.25;5073533;28;20051;-70
2022/03/16 01:29:32;;;;;;;57.72;34.90;;;;;;;8.06;83.44;101965.63;5052028;28;20048;-70
2022/03/16 01:32:00;;;;;;;61.75;35.50;;;;;;;8.06;83.31;101971.09;5073097;28;20045;-70
2022/03/16 01:34:28;;;;;;;64.18;36.72;;;;;;;8.03;83.52;101963.34;5053904;28;20584;-70
2022/03/16 01:36:56;;;;;;;64.10;37.20;;;;;;;8.13;82.55;101967.44;5065726;28;20060;-71
2022/03/16 01:39:24;;;;;;;62.45;35.83;;;;;;;7.99;83.17;101958.59;5063754;28;20487;-71
2022/03/16 01:41:53;;;;;;;65.22;37.72;;;;;;;8.09;83.27;101963.50;5054420;28;20055;-70
2022/03/16 01:44:50;;;;;;;65.03;38.40;;;;;;;8.02;83.34;101958.97;5069371;28;20479;-70
2022/03/16 01:47:20;;;;;;;64.25;39.53;;;;;;;7.95;84.21;101955.50;5069016;28;20048;-70
2022/03/16 01:49:51;;;;;;;67.55;38.00;;;;;;;7.94;83.90;101956.56;5054501;28;20068;-70
2022/03/16 01:52:25;;;;;;;65.22;37.30;;;;;;;7.99;83.64;101955.88;5051856;28;20051;-70
2022/03/16 01:54:53;;;;;;;65.25;37.20;;;;;;;7.95;83.83;101950.03;5053428;28;20048;-70
2022/03/16 01:57:23;;;;;;;63.75;37.20;;;;;;;7.95;83.54;101952.78;5052481;28;20060;-70
2022/03/16 01:59:51;;;;;;;63.88;37.83;;;;;;;7.91;83.36;101949.66;5069991;28;20044;-70
2022/03/16 02:02:19;;;;;;;67.53;39.83;;;;;;;7.88;83.89;101950.09;5050159;28;20040;-71
2022/03/16 02:04:47;;;;;;;63.72;38.60;;;;;;;7.90;83.53;101936.25;5077686;28;20106;-70
2022/03/16 02:07:15;;;;;;;66.47;40.20;;;;;;;7.84;83.80;101937.19;5072593;28;20048;-70
2022/03/16 02:09:44;;;;;;;69.30;38.38;;;;;;;7.86;83.88;101926.91;5072685;28;20491;-71
2022/03/16 02:12:12;;;;;;;68.70;38.95;;;;;;;7.77;84.18;101937.28;5072671;28;20036;-70
2022/03/16 02:14:40;;;;;;;69.28;39.40;;;;;;;7.74;84.88;101935.84;5071421;28;20041;-70
2022/03/16 02:17:08;;;;;;;70.32;39.25;;;;;;;7.72;84.44;101928.94;5070053;28;20060;-70
2022/03/16 02:19:36;;;;;;;70.45;40.05;;;;;;;7.74;84.55;101916.75;5067079;28;20060;-70
2022/03/16 02:22:07;;;;;;;69.32;39.85;;;;;;;7.75;84.31;101921.13;5070543;28;20051;-70
2022/03/16 02:24:35;;;;;;;77.18;41.00;;;;;;;7.82;84.29;101917.50;5067185;28;20051;-71
2022/03/16 02:27:03;;;;;;;76.75;41.65;;;;;;;7.83;84.06;101921.88;5054398;28;20052;-71
2022/03/16 02:29:31;;;;;;;71.18;41.40;;;;;;;7.91;83.09;101924.28;5047675;28;20060;-70
2022/03/16 02:31:59;;;;;;;74.38;40.80;;;;;;;7.96;83.42;101924.44;5072672;28;20521;-70
2022/03/16 02:34:27;;;;;;;68.15;40.40;;;;;;;7.84;83.93;101909.91;5067252;28;20051;-70
2022/03/16 02:36:55;;;;;;;67.40;38.47;;;;;;;7.82;83.96;101914.78;5071625;28;20060;-70
2022/03/16 02:39:23;;;;;;;66.88;39.05;;;;;;;7.74;84.43;101910.47;5072491;28;20498;-71
2022/03/16 02:41:52;;;;;;;69.80;40.88;;;;;;;7.68;85.08;101917.66;5068974;28;20048;-71
2022/03/16 02:44:20;;;;;;;73.88;42.60;;;;;;;7.61;85.72;101909.56;5064664;28;20048;-68
2022/03/16 02:46:47;;;;;;;69.45;40.65;;;;;;;7.55;85.25;101906.91;5071465;28;20040;-68
2022/03/16 02:49:16;;;;;;;73.55;42.60;;;;;;;7.66;84.93;101908.88;5066893;28;20044;-70
2022/03/16 02:51:44;;;;;;;79.82;42.90;;;;;;;7.69;85.06;101908.44;5069198;28;20040;-70
2022/03/16 02:54:12;;;;;;;70.72;43.15;;;;;;;7.61;84.97;101911.44;5072116;28;20051;-70
2022/03/16 02:56:40;;;;;;;70.82;40.97;;;;;;;7.61;85.69;101904.13;5071547;28;20379;-70
2022/03/16 02:59:08;;;;;;;70.40;41.67;;;;;;;7.62;85.25;101911.22;5071623;28;20041;-70
2022/03/16 03:01:35;;;;;;;73.47;40.13;;;;;;;7.61;84.88;101904.13;5071569;28;20049;-70
2022/03/16 03:04:04;;;;;;;69.47;41.45;;;;;;;7.60;85.22;101901.59;5072277;28;20053;-71
2022/03/16 03:06:31;;;;;;;69.85;42.40;;;;;;;7.66;85.49;101900.69;5059504;28;20052;-68
2022/03/16 03:08:59;;;;;;;72.57;40.72;;;;;;;7.66;85.20;101897.97;5067081;28;20371;-68
2022/03/16 03:11:27;;;;;;;69.72;40.67;;;;;;;7.95;83.47;101898.25;5071030;28;20044;-68
2022/03/16 03:13:55;;;;;;;69.63;41.00;;;;;;;8.18;81.71;101893.97;5052842;28;20053;-68
2022/03/16 03:16:23;;;;;;;65.93;39.17;;;;;;;8.20;82.00;101889.94;5053438;28;20455;-68
2022/03/16 03:18:51;;;;;;;72.03;40.25;;;;;;;8.28;81.74;101888.78;5071585;28;20079;-68
2022/03/16 03:21:19;;;;;;;71.82;41.53;;;;;;;8.01;83.27;101883.69;5071671;28;20513;-68
2022/03/16 03:23:47;;;;;;;69.03;40.55;;;;;;;7.84;84.27;101879.94;5071365;28;20057;-68
2022/03/16 03:26:14;;;;;;;64.32;38.05;;;;;;;7.93;83.18;101886.75;5086287;28;20049;-68
2022/03/16 03:28:42;;;;;;;72.90;40.20;;;;;;;8.16;82.07;101877.00;5071441;28;20048;-68
2022/03/16 03:31:10;;;;;;;68.13;38.95;;;;;;;8.10;82.94;101875.19;5067031;28;20052;-68
2022/03/16 03:33:38;;;;;;;66.10;40.80;;;;;;;8.04;83.25;101887.84;5048864;28;20048;-68
2022/03/16 03:36:06;;;;;;;69.78;40.72;;;;;;;7.83;84.63;101876.41;5066591;28;20505;-68
2022/03/16 03:38:34;;;;;;;70.35;40.65;;;;;;;7.74;84.76;101888.66;5065779;28;20045;-70
2022/03/16 03:41:03;;;;;;;68.53;39.80;;;;;;;7.61;85.34;101868.69;5071767;28;20040;-70
2022/03/16 03:43:31;;;;;;;66.57;39.97;;;;;;;7.59;85.90;101870.81;5071458;28;20052;-68
2022/03/16 03:45:59;;;;;;;70.45;41.15;;;;;;;7.59;85.65;101865.38;5067228;28;20059;-68
2022/03/16 03:48:27;;;;;;;69.38;40.47;;;;;;;7.73;85.30;101863.28;5069940;28;20093;-70
2022/03/16 03:50:55;;;;;;;70.82;40.35;;;;;;;7.69;85.49;101864.84;5071737;28;20067;-70
2022/03/16 03:53:22;;;;;;;66.03;39.50;;;;;;;7.59;86.47;101854.47;5071290;28;20052;-70
2022/03/16 03:55:50;;;;;;;66.30;40.03;;;;;;;7.51;86.80;101847.44;5071502;28;20052;-71
2022/03/16 03:58:18;;;;;;;72.63;39.53;;;;;;;7.47;86.94;101846.22;5071130;28;20056;-70
2022/03/16 04:00:46;;;;;;;68.90;37.78;;;;;;;7.48;87.12;101850.59;5071211;28;20497;-70
2022/03/16 04:03:14;;;;;;;73.55;40.72;;;;;;;7.46;87.48;101838.28;5068490;28;20422;-69
2022/03/16 04:05:42;;;;;;;72.50;40.50;;;;;;;7.46;87.34;101839.13;5066309;28;20120;-69
2022/03/16 04:08:10;;;;;;;70.47;40.35;;;;;;;7.46;87.18;101841.00;5067570;28;20040;-69
2022/03/16 04:10:39;;;;;;;70.13;40.65;;;;;;;7.55;87.03;101838.78;5071036;28;20049;-69
2022/03/16 04:13:07;;;;;;;62.75;37.22;;;;;;;7.57;86.64;101842.16;5070293;28;20049;-69
2022/03/16 04:15:35;;;;;;;71.53;39.03;;;;;;;7.59;86.93;101845.47;5070384;28;20036;-69
2022/03/16 04:18:03;;;;;;;68.03;38.63;;;;;;;7.49;87.51;101833.19;5071300;28;20052;-69
2022/03/16 04:20:31;;;;;;;68.75;39.85;;;;;;;7.63;86.93;101850.22;5063517;28;20051;-69
2022/03/16 04:22:58;;;;;;;73.57;40.45;;;;;;;7.53;87.26;101842.59;5068293;28;20052;-69
2022/03/16 04:25:27;;;;;;;67.93;40.42;;;;;;;7.65;86.52;101842.66;5068465;28;20521;-69
2022/03/16 04:27:54;;;;;;;72.28;38.97;;;;;;;7.73;86.38;101841.50;5044051;28;20052;-69
2022/03/16 04:30:22;;;;;;;67.55;38.97;;;;;;;7.70;86.84;101841.13;5060995;28;20049;-69
2022/03/16 04:32:52;;;;;;;66.63;39.55;;;;;;;7.53;87.12;101834.41;5063262;28;20041;-69
2022/03/16 04:35:20;;;;;;;66.93;38.72;;;;;;;7.55;87.96;101838.78;5070427;28;20410;-69
2022/03/16 04:37:48;;;;;;;71.90;40.53;;;;;;;7.52;88.63;101832.75;5069942;28;20071;-69
2022/03/16 04:40:16;;;;;;;67.00;38.35;;;;;;;7.48;88.27;101828.81;5071915;28;20056;-69
2022/03/16 04:42:44;;;;;;;71.45;39.38;;;;;;;7.60;87.67;101822.59;5074481;28;20075;-69
2022/03/16 04:45:13;;;;;;;69.47;40.42;;;;;;;7.55;88.81;101819.72;5068705;28;20067;-69
2022/03/16 04:47:40;;;;;;;71.20;38.58;;;;;;;7.50;88.42;101815.81;5070593;28;20067;-69
2022/03/16 04:50:09;;;;;;;72.15;39.28;;;;;;;7.41;88.46;101811.72;5070521;28;20049;-69
2022/03/16 04:52:48;;;;;;;68.00;40.60;;;;;;;7.39;88.84;101811.94;5074371;28;20383;-69
2022/03/16 04:55:16;;;;;;;70.90;39.55;;;;;;;7.39;88.94;101808.41;5073519;28;20486;-69
2022/03/16 04:57:44;;;;;;;77.13;39.95;;;;;;;7.34;88.74;101816.44;5073480;28;20056;-69
2022/03/16 05:00:12;;;;;;;75.95;40.28;;;;;;;7.30;89.07;101807.88;5073087;28;20059;-69
2022/03/16 05:02:40;;;;;;;69.13;40.83;;;;;;;7.26;89.14;101815.69;5074242;28;20044;-69
2022/03/16 05:05:10;;;;;;;69.20;40.28;;;;;;;7.27;89.83;101816.50;5073156;28;20490;-69
2022/03/16 05:07:39;;;;;;;68.93;42.10;;;;;;;7.19;89.67;101809.44;5068019;28;20044;-69
2022/03/16 05:10:09;;;;;;;75.05;41.42;;;;;;;7.17;89.78;101818.91;5072826;28;20044;-69
2022/03/16 05:12:41;;;;;;;77.43;42.85;;;;;;;7.22;89.26;101816.34;5059402;28;20395;-69
2022/03/16 05:15:12;;;;;;;76.45;46.35;;;;;;;7.16;89.54;101809.91;5069800;28;20049;-69
2022/03/16 05:17:41;;;;;;;77.25;44.05;;;;;;;7.08;89.79;101818.38;5069125;28;20372;-69
2022/03/16 05:20:10;;;;;;;76.70;44.17;;;;;;;7.04;90.34;101815.25;5064419;28;20028;-69
2022/03/16 05:22:44;;;;;;;75.88;43.15;;;;;;;7.05;90.80;101821.56;5067281;28;20044;-69
2022/03/16 05:25:13;;;;;;;;;;;;;;;7.04;90.92;101820.72;5060671;28;20071;-69
2022/03/16 05:27:41;;;;;;;78.72;44.72;;;;;;;7.04;91.07;101819.91;5067215;28;19920;-69
2022/03/16 05:30:11;;;;;;;76.63;44.50;;;;;;;6.96;91.69;101821.00;5060872;28;20065;-69
2022/03/16 05:32:41;;;;;;;78.28;43.58;;;;;;;6.93;91.75;101821.44;5057115;28;20041;-70
2022/03/16 05:35:11;;;;;;;77.97;43.90;;;;;;;6.86;92.19;101821.53;5065544;28;20036;-69
2022/03/16 05:37:40;;;;;;;71.88;41.83;;;;;;;6.81;92.24;101827.66;5075460;28;20048;-69
2022/03/16 05:40:09;;;;;;;79.82;45.83;;;;;;;6.80;92.48;101828.69;5072898;28;20052;-69
2022/03/16 05:42:37;;;;;;;78.80;44.38;;;;;;;6.82;92.68;101825.75;5069869;28;20052;-69
2022/03/16 05:45:06;;;;;;;80.53;45.28;;;;;;;6.91;92.39;101824.41;5068266;28;20049;-69
2022/03/16 05:47:34;;;;;;;82.82;45.08;;;;;;;6.97;91.96;101833.56;5066917;28;20067;-69
2022/03/16 05:50:03;;;;;;;78.70;43.42;;;;;;;6.94;91.86;101823.97;5063651;28;20057;-69
2022/03/16 05:52:36;;;;;;;83.17;45.40;;;;;;;6.89;92.34;101836.59;5066483;28;20057;-69
2022/03/16 05:55:07;;;;;;;81.82;46.67;;;;;;;6.88;92.72;101832.19;5064468;28;20040;-69
2022/03/16 05:57:37;;;;;;;86.72;46.42;;;;;;;6.87;93.32;101831.34;5058794;28;20052;-69
2022/03/16 06:00:11;;;;;;;87.38;49.22;;;;;;;6.97;93.34;101831.69;5065245;28;20067;-69
2022/03/16 06:02:39;;;;;;;86.57;47.90;;;;;;;7.13;92.50;101829.41;5066862;28;20037;-69
2022/03/16 06:05:07;;;;;;;86.10;47.55;;;;;;;7.10;93.11;101830.69;5048940;28;20060;-70
2022/03/16 06:07:37;;;;;;;95.90;49.83;;;;;;;7.12;92.98;101833.19;5070495;28;20044;-69
2022/03/16 06:10:06;;;;;;;82.40;46.15;;;;;;;7.09;92.84;101839.94;5069723;28;20055;-68
2022/03/16 06:12:51;;;;;;;91.45;47.65;;;;;;;7.15;92.87;101838.22;5062849;28;20384;-71
2022/03/16 06:15:19;;;;;;;88.32;48.50;;;;;;;7.15;92.65;101832.75;5066392;28;20052;-71
2022/03/16 06:17:47;;;;;;;85.28;47.83;;;;;;;7.21;92.46;101847.34;5065220;28;20048;-70
2022/03/16 06:20:15;;;;;;;82.53;47.25;;;;;;;7.34;92.23;101849.09;5068531;28;20059;-70
2022/03/16 06:22:43;;;;;;;81.68;45.40;;;;;;;7.50;90.19;101848.50;5066791;28;20059;-83
2022/03/16 06:25:11;;;;;;;86.80;46.58;;;;;;;7.78;89.07;101849.00;5032248;28;20052;-82
2022/03/16 06:27:39;;;;;;;89.38;46.13;;;;;;;8.03;87.13;101842.56;5017077;28;20156;-82
2022/03/16 06:30:07;;;;;;;92.13;46.63;;;;;;;8.15;86.12;101851.63;5012708;28;20419;-82
2022/03/16 06:32:37;;;;;;;89.60;48.00;;;;;;;8.29;84.81;101844.09;5019641;28;20045;-82
2022/03/16 06:35:06;;;;;;;83.40;46.38;;;;;;;8.40;83.75;101852.53;5017187;28;20053;-82
2022/03/16 06:37:34;;;;;;;88.95;46.80;;;;;;;8.50;83.76;101849.22;5030736;28;20045;-83
2022/03/16 06:40:04;;;;;;;80.38;46.35;;;;;;;8.43;84.67;101846.59;5017194;28;20056;-83
2022/03/16 06:42:33;;;;;;;80.88;46.60;;;;;;;8.45;84.30;101850.75;5032015;28;20040;-83
2022/03/16 06:45:02;;;;;;;88.97;46.50;;;;;;;8.43;83.35;101849.31;5017045;28;20095;-82
2022/03/16 06:47:30;;;;;;;83.15;46.55;;;;;;;8.52;84.38;101856.16;5017769;28;20052;-69
2022/03/16 06:49:58;;;;;;;81.45;46.30;;;;;;;7.86;86.90;101854.13;5049750;28;20422;-69
2022/03/16 06:52:26;;;;;;;83.45;47.60;;;;;;;7.58;89.43;101851.97;5051540;28;20049;-69
2022/03/16 06:54:54;;;;;;;81.50;45.70;;;;;;;7.48;89.40;101847.88;5051518;28;20387;-69
2022/03/16 06:57:22;;;;;;;84.22;48.08;;;;;;;7.65;89.42;101853.56;5051609;28;20047;-69
2022/03/16 07:00:02;;;;;;;82.13;46.97;;;;;;;7.73;89.14;101860.56;5051536;28;20049;-69
2022/03/16 07:02:30;;;;;;;83.32;47.30;;;;;;;7.83;88.32;101853.75;5051955;28;20406;-69
2022/03/16 07:04:59;;;;;;;92.55;48.58;;;;;;;7.70;89.58;101862.91;5051233;28;20045;-69
2022/03/16 07:07:27;;;;;;;90.82;47.78;;;;;;;7.90;88.98;101859.94;5051676;28;20049;-69
2022/03/16 07:09:58;;;;;;;90.63;46.72;;;;;;;7.98;88.03;101872.44;5050994;28;20805;-69
2022/03/16 07:12:29;;;;;;;82.25;46.50;;;;;;;7.92;87.05;101869.56;5051446;28;20045;-69
2022/03/16 07:14:57;;;;;;;83.80;47.30;;;;;;;7.99;86.72;101866.75;5051122;28;20057;-69
2022/03/16 07:17:25;;;;;;;88.70;49.28;;;;;;;7.98;86.52;101873.28;5051470;28;20045;-69
2022/03/16 07:19:53;;;;;;;85.20;46.53;;;;;;;7.94;86.90;101878.31;5051449;28;20048;-69
2022/03/16 07:22:21;;;;;;;81.10;46.33;;;;;;;8.07;86.43;101871.88;5051278;28;20037;-70
2022/03/16 07:25:09;;;;;;;82.43;47.22;;;;;;;8.50;85.20;101871.06;5050302;28;20573;-69
2022/03/16 07:27:39;;;;;;;78.57;47.13;;;;;;;8.73;84.01;101875.75;5050078;28;20045;-70
2022/03/16 07:30:09;;;;;;;85.25;46.85;;;;;;;8.66;83.38;101875.03;5063436;28;20517;-69
2022/03/16 07:32:41;;;;;;;81.68;46.42;;;;;;;8.60;83.51;101874.06;5071561;28;20036;-69
2022/03/16 07:35:12;;;;;;;77.53;46.05;;;;;;;8.93;82.22;101869.09;5071368;28;20476;-70
2022/03/16 07:37:42;;;;;;;87.22;46.92;;;;;;;8.91;81.58;101874.81;5071496;28;20059;-69
2022/03/16 07:40:10;;;;;;;87.45;46.67;;;;;;;9.17;81.17;101878.13;5053542;28;20048;-69
2022/03/16 07:42:43;;;;;;;80.05;46.03;;;;;;;9.01;80.10;101868.78;5041034;28;20056;-69
2022/03/16 07:45:13;;;;;;;79.47;47.95;;;;;;;9.01;80.93;101875.03;5070064;28;20422;-69
2022/03/16 07:47:42;;;;;;;77.10;44.40;;;;;;;9.19;79.80;101881.44;5070279;28;20490;-69
2022/03/16 07:50:10;;;;;;;80.63;45.13;;;;;;;9.19;80.28;101876.00;5070840;28;20044;-69
2022/03/16 07:52:38;;;;;;;80.18;44.55;;;;;;;9.17;79.93;101882.75;5071147;28;20045;-69
2022/03/16 07:55:07;;;;;;;74.50;44.63;;;;;;;9.13;79.85;101875.06;5052938;28;20052;-70
2022/03/16 07:57:37;;;;;;;72.38;44.70;;;;;;;9.03;79.75;101876.72;5071093;28;20040;-69
2022/03/16 08:00:07;;;;;;;82.20;46.28;;;;;;;9.46;78.71;101874.66;5070552;28;20052;-69
2022/03/16 08:02:35;;;;;;;75.38;45.13;;;;;;;9.31;78.69;101880.63;5070938;28;20063;-69
2022/03/16 08:05:03;;;;;;;79.55;45.30;;;;;;;9.25;79.70;101875.03;5055780;28;20049;-69
2022/03/16 08:07:32;;;;;;;79.95;46.33;;;;;;;9.57;78.59;101882.00;5073513;28;20037;-69
2022/03/16 08:09:59;;;;;;;82.70;48.40;;;;;;;9.73;77.68;101877.66;5061849;28;20396;-69
2022/03/16 08:12:27;;;;;;;78.25;45.85;;;;;;;9.90;76.17;101888.69;5073828;28;20479;-70
2022/03/16 08:14:55;;;;;;;76.60;45.25;;;;;;;10.18;75.02;101883.47;5074700;28;20059;-70
2022/03/16 08:17:23;;;;;;;71.70;44.33;;;;;;;10.43;75.16;101872.19;5074453;28;20040;-70
2022/03/16 08:19:52;;;;;;;76.35;44.17;;;;;;;10.50;72.66;101872.00;5073911;28;20049;-70
2022/03/16 08:22:30;;;;;;;77.05;44.47;;;;;;;10.63;72.33;101876.34;5071853;28;20041;-70
2022/03/16 08:25:01;;;;;;;77.57;44.22;;;;;;;10.73;71.50;101876.50;5064233;28;20053;-69
2022/03/16 08:27:30;;;;;;;77.30;46.42;;;;;;;10.76;72.02;101877.94;5056438;28;20044;-70
2022/03/16 08:29:58;;;;;;;82.78;44.90;;;;;;;10.52;72.23;101871.78;5056391;28;20044;-70
2022/03/16 08:32:27;;;;;;;78.10;44.72;;;;;;;10.70;73.10;101878.94;5074280;28;20071;-70
2022/03/16 08:34:55;;;;;;;77.70;44.55;;;;;;;10.71;72.73;101878.66;5073570;28;20055;-70
2022/03/16 08:37:23;;;;;;;80.43;45.97;;;;;;;10.85;71.19;101870.94;5074398;28;20399;-70
2022/03/16 08:39:51;;;;;;;74.20;46.15;;;;;;;10.85;72.21;101879.16;5056471;28;20044;-69
2022/03/16 08:42:19;;;;;;;75.57;42.05;;;;;;;11.09;69.87;101868.00;5074364;28;20505;-69
2022/03/16 08:44:47;;;;;;;83.38;44.92;;;;;;;11.16;70.53;101874.13;5074061;28;20045;-69
2022/03/16 08:47:18;;;;;;;77.38;44.15;;;;;;;11.53;68.33;101872.72;5074134;28;20482;-69
2022/03/16 08:49:47;;;;;;;81.47;45.65;;;;;;;11.49;67.98;101871.56;5073879;28;20056;-69
2022/03/16 08:52:15;;;;;;;79.50;45.50;;;;;;;11.30;69.81;101862.81;5056006;28;20087;-69
2022/03/16 08:54:43;;;;;;;71.10;43.30;;;;;;;11.23;70.80;101868.47;5074097;28;20047;-75
2022/03/16 08:57:11;;;;;;;76.65;45.90;;;;;;;11.65;68.81;101869.03;5073965;28;20044;-81
2022/03/16 08:59:40;;;;;;;82.10;47.40;;;;;;;11.81;67.75;101862.63;5074044;28;20041;-82
2022/03/16 09:02:08;;;;;;;76.95;46.15;;;;;;;11.99;68.17;101876.25;5074042;28;20051;-80
2022/03/16 09:04:36;;;;;;;78.07;46.97;;;;;;;12.22;65.51;101872.44;5073032;28;20052;-79
2022/03/16 09:07:04;;;;;;;83.55;47.60;;;;;;;12.36;66.27;101873.66;5073674;28;20067;-75
2022/03/16 09:09:39;;;;;;;78.60;46.50;;;;;;;12.13;65.97;101868.47;5073636;28;20044;-74
2022/03/16 09:12:09;;;;;;;78.45;44.53;;;;;;;12.04;66.84;101879.94;5073751;28;20052;-76
2022/03/16 09:14:38;;;;;;;78.88;45.45;;;;;;;11.95;66.59;101864.97;5073098;28;20044;-73
2022/03/16 09:17:07;;;;;;;75.70;44.47;;;;;;;12.28;64.55;101857.66;5073459;28;20060;-76
2022/03/16 09:19:35;;;;;;;77.32;46.78;;;;;;;12.49;65.79;101849.59;5073608;28;20045;-76
2022/03/16 09:22:04;;;;;;;77.70;47.15;;;;;;;12.56;65.09;101855.69;5073508;28;20086;-79
2022/03/16 09:24:32;;;;;;;77.57;45.30;;;;;;;12.39;64.57;101855.84;5073325;28;20041;-78
2022/03/16 09:27:01;;;;;;;90.60;47.75;;;;;;;12.72;64.05;101853.88;5072641;28;20048;-78
2022/03/16 09:29:29;;;;;;;77.35;45.50;;;;;;;12.77;63.34;101845.69;5071641;28;20057;-78
2022/03/16 09:32:06;;;;;;;;;;;;;;;12.86;61.86;101854.25;5073242;28;20499;-78
2022/03/16 09:34:34;;;;;;;80.80;46.30;;;;;;;13.22;62.50;101844.59;5073134;28;19925;-78
2022/03/16 09:37:02;;;;;;;77.35;43.85;;;;;;;13.17;60.31;101843.47;5055193;28;20056;-78
2022/03/16 09:39:31;;;;;;;76.75;43.83;;;;;;;13.94;58.24;101833.06;5055221;28;20403;-75
2022/03/16 09:41:59;;;;;;;78.88;46.13;;;;;;;13.66;59.51;101830.53;5073128;28;20407;-74
2022/03/16 09:44:30;;;;;;;71.70;42.97;;;;;;;13.73;59.70;101826.69;5038326;28;20045;-79
2022/03/16 09:47:01;;;;;;;79.32;44.58;;;;;;;13.44;60.80;101828.75;5054234;28;20056;-72
2022/03/16 09:49:29;;;;;;;78.80;44.55;;;;;;;13.53;59.95;101833.75;5038092;28;20047;-73
2022/03/16 09:51:59;;;;;;;71.93;42.75;;;;;;;13.41;62.76;101832.03;5055028;28;20060;-70
2022/03/16 09:54:27;;;;;;;78.40;44.92;;;;;;;13.08;62.23;101828.59;5038138;28;20053;-71
2022/03/16 09:56:56;;;;;;;79.75;44.13;;;;;;;13.49;60.91;101818.91;5050753;28;20514;-70
2022/03/16 09:59:24;;;;;;;84.38;45.10;;;;;;;13.41;62.09;101826.53;5027847;28;20044;-70
2022/03/16 10:02:07;;;;;;;75.35;44.13;;;;;;;13.95;58.74;101824.53;5054798;28;20398;-71
2022/03/16 10:04:37;;;;;;;75.25;42.55;;;;;;;14.33;59.10;101817.97;5038407;28;20048;-71
2022/03/16 10:07:06;;;;;;;72.05;42.70;;;;;;;14.55;57.04;101823.19;5038055;28;20379;-70
2022/03/16 10:15:19;;;;;;;67.30;39.83;;;;;;;14.54;57.80;101807.78;5038130;28;20049;-71
2022/03/16 10:17:56;;;;;;;79.97;42.25;;;;;;;14.30;58.14;101810.25;5054461;28;20397;-71
2022/03/16 10:20:29;;;;;;;73.57;41.50;;;;;;;14.50;58.87;101804.75;5054468;28;20045;-71
2022/03/16 10:23:20;;;;;;;66.90;39.55;;;;;;;14.22;59.20;101801.44;5038411;28;20498;-71
2022/03/16 10:25:53;;;;;;;77.80;43.83;;;;;;;14.57;59.36;101793.44;5037360;28;20056;-71
2022/03/16 10:28:23;;;;;;;74.18;41.67;;;;;;;14.35;59.99;101796.47;5038167;28;20053;-71
2022/03/16 10:30:58;;;;;;;75.43;40.58;;;;;;;13.34;63.11;101792.97;5034260;28;20394;-71
2022/03/16 10:33:33;;;;;;;78.25;42.55;;;;;;;14.16;61.31;101788.78;5034136;28;20045;-71
2022/03/16 10:36:04;;;;;;;;;;;;;;;14.13;59.40;101783.81;5052196;28;20059;-68
2022/03/16 10:38:44;;;;;;;70.00;40.38;;;;;;;14.54;57.69;101790.41;5052099;28;20327;-69
2022/03/16 10:46:34;;;;;;;74.13;42.28;;;;;;;14.21;59.28;101766.75;5034168;28;20049;-68
2022/03/16 10:46:58;;;;;;;70.65;41.15;;;;;;;14.40;58.39;101757.94;5051767;28;20052;-69
2022/03/16 10:49:34;;;;;;;70.38;40.47;;;;;;;14.93;57.22;101756.75;5051704;28;20048;-69
2022/03/16 10:52:09;;;;;;;67.28;40.33;;;;;;;15.26;55.28;101751.63;5033991;28;20045;-68
2022/03/16 10:54:38;;;;;;;66.95;40.22;;;;;;;15.45;55.64;101749.06;5051836;28;20491;-68
2022/03/16 10:57:12;;;;;;;70.70;41.25;;;;;;;15.45;55.43;101748.25;5050445;28;20040;-69
2022/03/16 10:59:44;;;;;;;70.88;40.85;;;;;;;15.76;54.09;101753.56;5051765;28;20475;-68
2022/03/16 11:02:14;;;;;;;70.28;41.08;;;;;;;15.41;56.99;101742.47;5051206;28;20052;-69
2022/03/16 11:04:44;;;;;;;69.50;39.35;;;;;;;14.90;58.15;101729.72;5051646;28;20057;-69
2022/03/16 11:07:13;;;;;;;68.22;40.15;;;;;;;15.00;57.47;101735.22;5051717;28;20045;-68
2022/03/16 11:09:41;;;;;;;69.50;40.58;;;;;;;14.81;58.09;101726.72;5051450;28;20041;-69
2022/03/16 11:15:01;;;;;;;74.40;41.13;;;;;;;14.99;57.82;101713.44;5049126;28;20515;-69
2022/03/16 11:17:32;;;;;;;65.88;39.22;;;;;;;14.51;57.03;101712.75;5049025;28;20049;-69
2022/03/16 11:20:02;;;;;;;69.05;39.95;;;;;;;14.80;57.58;101714.06;5050355;28;20586;-69
2022/03/16 11:24:15;;;;;;;64.13;39.60;;;;;;;15.30;55.80;101713.31;5032921;28;20053;-69
2022/03/16 11:26:04;;;;;;;66.10;41.28;;;;;;;15.30;57.60;101714.13;5044927;28;20045;-69
2022/03/16 11:28:35;;;;;;;64.13;38.45;;;;;;;15.39;55.66;101708.03;5050325;28;20049;-69
2022/03/16 11:31:08;;;;;;;65.75;39.80;;;;;;;14.93;56.82;101709.06;5049912;28;20484;-70
2022/03/16 11:33:50;;;;;;;67.35;39.20;;;;;;;15.54;55.07;101696.88;5051509;28;20049;-70
2022/03/16 11:36:37;;;;;;;60.08;37.72;;;;;;;15.82;53.78;101707.44;5050245;28;20719;-70
2022/03/16 11:39:19;;;;;;;61.08;37.35;;;;;;;15.91;54.41;101694.66;5054563;28;20045;-70